sensor_id;sensor_type;location;lat;lon;timestamp;P1;durP1;ratioP1;P2;durP2;ratioP2
15899;SDS011;8048;50.644;6.184;2024-03-25T00:02:07;6.23;;;4.37;;
15899;SDS011;8048;50.644;6.184;2024-03-25T00:04:33;3.90;;;3.60;;
15899;SDS011;8048;50.644;6.184;2024-03-25T00:06:58;4.50;;;4.20;;
15899;SDS011;8048;50.644;6.184;2024-03-25T00:09:24;8.73;;;5.40;;
15899;SDS011;8048;50.644;6.184;2024-03-25T00:11:49;4.53;;;3.50;;
15899;SDS011;8048;50.644;6.184;2024-03-25T00:14:19;4.30;;;3.63;;
15899;SDS011;8048;50.644;6.184;2024-03-25T00:16:48;5.93;;;3.30;;
15899;SDS011;8048;50.644;6.184;2024-03-25T00:19:14;5.43;;;3.47;;
15899;SDS011;8048;50.644;6.184;2024-03-25T00:21:40;14.87;;;3.57;;
15899;SDS011;8048;50.644;6.184;2024-03-25T00:24:07;10.13;;;3.50;;
15899;SDS011;8048;50.644;6.184;2024-03-25T00:26:32;6.17;;;4.03;;
15899;SDS011;8048;50.644;6.184;2024-03-25T00:28:58;7.73;;;3.70;;
15899;SDS011;8048;50.644;6.184;2024-03-25T00:31:24;8.33;;;3.87;;
15899;SDS011;8048;50.644;6.184;2024-03-25T00:33:49;3.43;;;3.03;;
15899;SDS011;8048;50.644;6.184;2024-03-25T00:36:15;5.60;;;3.40;;
15899;SDS011;8048;50.644;6.184;2024-03-25T00:38:40;4.23;;;3.83;;
15899;SDS011;8048;50.644;6.184;2024-03-25T00:41:06;3.50;;;3.30;;
15899;SDS011;8048;50.644;6.184;2024-03-25T00:43:32;8.13;;;3.50;;
15899;SDS011;8048;50.644;6.184;2024-03-25T00:45:58;7.33;;;3.80;;
15899;SDS011;8048;50.644;6.184;2024-03-25T00:48:24;5.80;;;3.60;;
15899;SDS011;8048;50.644;6.184;2024-03-25T00:50:49;3.43;;;3.20;;
15899;SDS011;8048;50.644;6.184;2024-03-25T00:53:15;8.07;;;3.73;;
15899;SDS011;8048;50.644;6.184;2024-03-25T00:55:40;4.10;;;3.70;;
15899;SDS011;8048;50.644;6.184;2024-03-25T00:58:06;4.23;;;3.17;;
15899;SDS011;8048;50.644;6.184;2024-03-25T01:00:31;4.00;;;3.20;;
15899;SDS011;8048;50.644;6.184;2024-03-25T01:02:57;4.27;;;3.90;;
15899;SDS011;8048;50.644;6.184;2024-03-25T01:05:23;6.33;;;3.80;;
15899;SDS011;8048;50.644;6.184;2024-03-25T01:07:48;3.70;;;3.40;;
15899;SDS011;8048;50.644;6.184;2024-03-25T01:10:14;3.77;;;3.13;;
15899;SDS011;8048;50.644;6.184;2024-03-25T01:12:41;5.80;;;3.70;;
15899;SDS011;8048;50.644;6.184;2024-03-25T01:15:07;3.80;;;3.50;;
15899;SDS011;8048;50.644;6.184;2024-03-25T01:17:35;5.90;;;4.47;;
15899;SDS011;8048;50.644;6.184;2024-03-25T01:20:01;9.97;;;3.50;;
15899;SDS011;8048;50.644;6.184;2024-03-25T01:22:26;4.57;;;3.50;;
15899;SDS011;8048;50.644;6.184;2024-03-25T01:24:52;3.37;;;3.10;;
15899;SDS011;8048;50.644;6.184;2024-03-25T01:27:17;3.77;;;3.30;;
15899;SDS011;8048;50.644;6.184;2024-03-25T01:29:43;3.83;;;3.10;;
15899;SDS011;8048;50.644;6.184;2024-03-25T01:32:08;4.20;;;3.90;;
15899;SDS011;8048;50.644;6.184;2024-03-25T01:34:34;4.23;;;3.13;;
15899;SDS011;8048;50.644;6.184;2024-03-25T01:36:59;7.80;;;3.23;;
15899;SDS011;8048;50.644;6.184;2024-03-25T01:39:25;8.30;;;3.97;;
15899;SDS011;8048;50.644;6.184;2024-03-25T01:41:51;4.27;;;3.47;;
15899;SDS011;8048;50.644;6.184;2024-03-25T01:44:16;6.30;;;3.93;;
15899;SDS011;8048;50.644;6.184;2024-03-25T01:46:42;3.53;;;3.23;;
15899;SDS011;8048;50.644;6.184;2024-03-25T01:49:08;3.20;;;2.90;;
15899;SDS011;8048;50.644;6.184;2024-03-25T01:51:34;5.17;;;4.30;;
15899;SDS011;8048;50.644;6.184;2024-03-25T01:54:01;4.30;;;3.20;;
15899;SDS011;8048;50.644;6.184;2024-03-25T01:56:29;8.00;;;3.33;;
15899;SDS011;8048;50.644;6.184;2024-03-25T01:58:57;8.70;;;3.57;;
15899;SDS011;8048;50.644;6.184;2024-03-25T02:01:23;3.83;;;3.53;;
15899;SDS011;8048;50.644;6.184;2024-03-25T02:03:49;6.27;;;3.10;;
15899;SDS011;8048;50.644;6.184;2024-03-25T02:06:15;4.63;;;3.70;;
15899;SDS011;8048;50.644;6.184;2024-03-25T02:08:43;4.23;;;3.40;;
15899;SDS011;8048;50.644;6.184;2024-03-25T02:11:09;3.07;;;2.87;;
15899;SDS011;8048;50.644;6.184;2024-03-25T02:13:35;4.20;;;3.53;;
15899;SDS011;8048;50.644;6.184;2024-03-25T02:16:02;3.37;;;3.07;;
15899;SDS011;8048;50.644;6.184;2024-03-25T02:18:28;7.70;;;3.10;;
15899;SDS011;8048;50.644;6.184;2024-03-25T02:20:55;4.40;;;2.90;;
15899;SDS011;8048;50.644;6.184;2024-03-25T02:23:21;5.33;;;3.60;;
15899;SDS011;8048;50.644;6.184;2024-03-25T02:25:50;4.10;;;2.87;;
15899;SDS011;8048;50.644;6.184;2024-03-25T02:28:16;5.73;;;3.03;;
15899;SDS011;8048;50.644;6.184;2024-03-25T02:30:42;3.10;;;2.90;;
15899;SDS011;8048;50.644;6.184;2024-03-25T02:33:08;3.70;;;3.50;;
15899;SDS011;8048;50.644;6.184;2024-03-25T02:35:33;5.70;;;3.53;;
15899;SDS011;8048;50.644;6.184;2024-03-25T02:38:00;3.60;;;2.90;;
15899;SDS011;8048;50.644;6.184;2024-03-25T02:40:26;4.03;;;3.73;;
15899;SDS011;8048;50.644;6.184;2024-03-25T02:42:52;4.00;;;2.63;;
15899;SDS011;8048;50.644;6.184;2024-03-25T02:45:18;3.90;;;2.30;;
15899;SDS011;8048;50.644;6.184;2024-03-25T02:47:43;3.50;;;3.07;;
15899;SDS011;8048;50.644;6.184;2024-03-25T02:50:10;3.43;;;2.80;;
15899;SDS011;8048;50.644;6.184;2024-03-25T02:52:36;6.73;;;3.90;;
15899;SDS011;8048;50.644;6.184;2024-03-25T02:55:01;4.13;;;2.40;;
15899;SDS011;8048;50.644;6.184;2024-03-25T02:57:27;3.00;;;2.80;;
15899;SDS011;8048;50.644;6.184;2024-03-25T02:59:53;4.00;;;3.70;;
15899;SDS011;8048;50.644;6.184;2024-03-25T03:02:18;2.83;;;2.60;;
15899;SDS011;8048;50.644;6.184;2024-03-25T03:04:44;2.40;;;2.30;;
15899;SDS011;8048;50.644;6.184;2024-03-25T03:07:09;3.13;;;2.83;;
15899;SDS011;8048;50.644;6.184;2024-03-25T03:09:35;3.23;;;3.00;;
15899;SDS011;8048;50.644;6.184;2024-03-25T03:12:01;2.97;;;2.70;;
15899;SDS011;8048;50.644;6.184;2024-03-25T03:14:26;3.10;;;2.90;;
15899;SDS011;8048;50.644;6.184;2024-03-25T03:16:52;5.03;;;3.30;;
15899;SDS011;8048;50.644;6.184;2024-03-25T03:19:19;3.00;;;2.80;;
15899;SDS011;8048;50.644;6.184;2024-03-25T03:21:45;2.27;;;2.17;;
15899;SDS011;8048;50.644;6.184;2024-03-25T03:24:11;4.40;;;4.00;;
15899;SDS011;8048;50.644;6.184;2024-03-25T03:26:37;4.23;;;3.00;;
15899;SDS011;8048;50.644;6.184;2024-03-25T03:29:03;2.77;;;2.50;;
15899;SDS011;8048;50.644;6.184;2024-03-25T03:31:29;4.27;;;3.87;;
15899;SDS011;8048;50.644;6.184;2024-03-25T03:33:55;4.70;;;3.97;;
15899;SDS011;8048;50.644;6.184;2024-03-25T03:36:21;3.20;;;3.00;;
15899;SDS011;8048;50.644;6.184;2024-03-25T03:38:49;6.63;;;3.30;;
15899;SDS011;8048;50.644;6.184;2024-03-25T03:41:16;3.00;;;2.70;;
15899;SDS011;8048;50.644;6.184;2024-03-25T03:43:41;2.87;;;2.70;;
15899;SDS011;8048;50.644;6.184;2024-03-25T03:46:07;4.30;;;2.97;;
15899;SDS011;8048;50.644;6.184;2024-03-25T03:48:32;2.83;;;2.73;;
15899;SDS011;8048;50.644;6.184;2024-03-25T03:50:58;3.40;;;3.20;;
15899;SDS011;8048;50.644;6.184;2024-03-25T03:53:24;2.30;;;2.20;;
15899;SDS011;8048;50.644;6.184;2024-03-25T03:55:56;2.17;;;2.07;;
15899;SDS011;8048;50.644;6.184;2024-03-25T03:58:23;2.90;;;2.70;;
15899;SDS011;8048;50.644;6.184;2024-03-25T04:00:49;3.33;;;3.03;;
15899;SDS011;8048;50.644;6.184;2024-03-25T04:03:15;4.97;;;3.47;;
15899;SDS011;8048;50.644;6.184;2024-03-25T04:05:41;4.73;;;4.33;;
15899;SDS011;8048;50.644;6.184;2024-03-25T04:08:07;2.60;;;2.40;;
15899;SDS011;8048;50.644;6.184;2024-03-25T04:10:33;3.07;;;2.87;;
15899;SDS011;8048;50.644;6.184;2024-03-25T04:12:59;8.20;;;3.07;;
15899;SDS011;8048;50.644;6.184;2024-03-25T04:15:24;3.07;;;2.87;;
15899;SDS011;8048;50.644;6.184;2024-03-25T04:17:51;3.17;;;2.83;;
15899;SDS011;8048;50.644;6.184;2024-03-25T04:20:17;3.27;;;2.80;;
15899;SDS011;8048;50.644;6.184;2024-03-25T04:22:46;2.60;;;2.50;;
15899;SDS011;8048;50.644;6.184;2024-03-25T04:25:12;4.23;;;3.83;;
15899;SDS011;8048;50.644;6.184;2024-03-25T04:27:41;5.93;;;2.70;;
15899;SDS011;8048;50.644;6.184;2024-03-25T04:30:07;6.83;;;3.17;;
15899;SDS011;8048;50.644;6.184;2024-03-25T04:32:34;4.00;;;3.20;;
15899;SDS011;8048;50.644;6.184;2024-03-25T04:35:00;7.93;;;3.27;;
15899;SDS011;8048;50.644;6.184;2024-03-25T04:37:27;3.47;;;2.87;;
15899;SDS011;8048;50.644;6.184;2024-03-25T04:39:53;3.50;;;2.33;;
15899;SDS011;8048;50.644;6.184;2024-03-25T04:42:19;2.90;;;2.70;;
15899;SDS011;8048;50.644;6.184;2024-03-25T04:44:45;4.57;;;3.13;;
15899;SDS011;8048;50.644;6.184;2024-03-25T04:47:11;4.83;;;3.33;;
15899;SDS011;8048;50.644;6.184;2024-03-25T04:49:37;3.33;;;3.07;;
15899;SDS011;8048;50.644;6.184;2024-03-25T04:52:03;3.20;;;2.90;;
15899;SDS011;8048;50.644;6.184;2024-03-25T04:54:29;3.00;;;2.80;;
15899;SDS011;8048;50.644;6.184;2024-03-25T04:56:54;2.97;;;2.63;;
15899;SDS011;8048;50.644;6.184;2024-03-25T04:59:21;2.80;;;2.53;;
15899;SDS011;8048;50.644;6.184;2024-03-25T05:01:46;3.20;;;2.90;;
15899;SDS011;8048;50.644;6.184;2024-03-25T05:04:12;2.80;;;2.70;;
15899;SDS011;8048;50.644;6.184;2024-03-25T05:06:38;2.97;;;2.80;;
15899;SDS011;8048;50.644;6.184;2024-03-25T05:09:03;3.57;;;3.43;;
15899;SDS011;8048;50.644;6.184;2024-03-25T05:11:30;4.50;;;2.80;;
15899;SDS011;8048;50.644;6.184;2024-03-25T05:13:56;3.07;;;2.70;;
15899;SDS011;8048;50.644;6.184;2024-03-25T05:16:22;3.00;;;2.70;;
15899;SDS011;8048;50.644;6.184;2024-03-25T05:18:47;5.57;;;3.67;;
15899;SDS011;8048;50.644;6.184;2024-03-25T05:21:13;2.63;;;2.53;;
15899;SDS011;8048;50.644;6.184;2024-03-25T05:23:38;3.57;;;3.30;;
15899;SDS011;8048;50.644;6.184;2024-03-25T05:26:04;3.07;;;2.87;;
15899;SDS011;8048;50.644;6.184;2024-03-25T05:28:30;2.60;;;2.40;;
15899;SDS011;8048;50.644;6.184;2024-03-25T05:30:56;2.80;;;2.70;;
15899;SDS011;8048;50.644;6.184;2024-03-25T05:33:21;4.40;;;3.33;;
15899;SDS011;8048;50.644;6.184;2024-03-25T05:35:47;3.10;;;2.80;;
15899;SDS011;8048;50.644;6.184;2024-03-25T05:38:12;3.67;;;2.90;;
15899;SDS011;8048;50.644;6.184;2024-03-25T05:40:38;6.50;;;4.30;;
15899;SDS011;8048;50.644;6.184;2024-03-25T05:43:04;8.63;;;5.70;;
15899;SDS011;8048;50.644;6.184;2024-03-25T05:45:29;3.87;;;3.47;;
15899;SDS011;8048;50.644;6.184;2024-03-25T05:47:55;9.07;;;5.33;;
15899;SDS011;8048;50.644;6.184;2024-03-25T05:50:20;13.00;;;6.17;;
15899;SDS011;8048;50.644;6.184;2024-03-25T05:52:46;6.17;;;5.57;;
15899;SDS011;8048;50.644;6.184;2024-03-25T05:55:12;6.07;;;5.10;;
15899;SDS011;8048;50.644;6.184;2024-03-25T05:57:37;6.70;;;6.10;;
15899;SDS011;8048;50.644;6.184;2024-03-25T06:00:03;7.53;;;6.53;;
15899;SDS011;8048;50.644;6.184;2024-03-25T06:02:29;9.47;;;7.57;;
15899;SDS011;8048;50.644;6.184;2024-03-25T06:04:55;9.40;;;8.13;;
15899;SDS011;8048;50.644;6.184;2024-03-25T06:07:21;11.50;;;8.03;;
15899;SDS011;8048;50.644;6.184;2024-03-25T06:09:47;7.50;;;6.67;;
15899;SDS011;8048;50.644;6.184;2024-03-25T06:12:13;9.97;;;7.10;;
15899;SDS011;8048;50.644;6.184;2024-03-25T06:14:38;11.47;;;8.10;;
15899;SDS011;8048;50.644;6.184;2024-03-25T06:17:04;9.83;;;8.83;;
15899;SDS011;8048;50.644;6.184;2024-03-25T06:19:30;10.30;;;7.90;;
15899;SDS011;8048;50.644;6.184;2024-03-25T06:21:55;9.47;;;7.33;;
15899;SDS011;8048;50.644;6.184;2024-03-25T06:24:21;8.57;;;7.23;;
15899;SDS011;8048;50.644;6.184;2024-03-25T06:26:47;9.40;;;7.50;;
15899;SDS011;8048;50.644;6.184;2024-03-25T06:29:12;9.20;;;7.57;;
15899;SDS011;8048;50.644;6.184;2024-03-25T06:31:38;10.20;;;8.47;;
15899;SDS011;8048;50.644;6.184;2024-03-25T06:34:22;8.17;;;7.40;;
15899;SDS011;8048;50.644;6.184;2024-03-25T06:36:48;9.10;;;7.10;;
15899;SDS011;8048;50.644;6.184;2024-03-25T06:39:16;8.80;;;6.47;;
15899;SDS011;8048;50.644;6.184;2024-03-25T06:41:43;9.43;;;7.47;;
15899;SDS011;8048;50.644;6.184;2024-03-25T06:44:09;13.60;;;9.13;;
15899;SDS011;8048;50.644;6.184;2024-03-25T06:46:34;7.53;;;6.93;;
15899;SDS011;8048;50.644;6.184;2024-03-25T06:49:00;8.37;;;7.30;;
15899;SDS011;8048;50.644;6.184;2024-03-25T06:51:25;8.97;;;7.80;;
15899;SDS011;8048;50.644;6.184;2024-03-25T06:53:51;9.63;;;7.80;;
15899;SDS011;8048;50.644;6.184;2024-03-25T06:56:17;8.80;;;6.63;;
15899;SDS011;8048;50.644;6.184;2024-03-25T06:58:42;7.37;;;6.60;;
15899;SDS011;8048;50.644;6.184;2024-03-25T07:01:08;10.47;;;7.17;;
15899;SDS011;8048;50.644;6.184;2024-03-25T07:03:37;7.80;;;7.03;;
15899;SDS011;8048;50.644;6.184;2024-03-25T07:06:03;9.43;;;8.43;;
15899;SDS011;8048;50.644;6.184;2024-03-25T07:08:29;8.97;;;6.90;;
15899;SDS011;8048;50.644;6.184;2024-03-25T07:10:58;9.10;;;6.93;;
15899;SDS011;8048;50.644;6.184;2024-03-25T07:13:24;9.97;;;7.60;;
15899;SDS011;8048;50.644;6.184;2024-03-25T07:15:50;13.90;;;6.67;;
15899;SDS011;8048;50.644;6.184;2024-03-25T07:18:16;10.00;;;6.97;;
15899;SDS011;8048;50.644;6.184;2024-03-25T07:20:42;7.63;;;6.80;;
15899;SDS011;8048;50.644;6.184;2024-03-25T07:23:09;8.73;;;6.60;;
15899;SDS011;8048;50.644;6.184;2024-03-25T07:25:35;7.57;;;5.83;;
15899;SDS011;8048;50.644;6.184;2024-03-25T07:28:01;5.90;;;5.33;;
15899;SDS011;8048;50.644;6.184;2024-03-25T07:30:27;6.17;;;5.33;;
15899;SDS011;8048;50.644;6.184;2024-03-25T07:32:54;9.33;;;8.50;;
15899;SDS011;8048;50.644;6.184;2024-03-25T07:35:20;7.13;;;6.43;;
15899;SDS011;8048;50.644;6.184;2024-03-25T07:37:46;6.43;;;5.80;;
15899;SDS011;8048;50.644;6.184;2024-03-25T07:40:11;6.80;;;6.20;;
15899;SDS011;8048;50.644;6.184;2024-03-25T07:42:38;10.07;;;5.60;;
15899;SDS011;8048;50.644;6.184;2024-03-25T07:45:04;6.47;;;5.87;;
15899;SDS011;8048;50.644;6.184;2024-03-25T07:47:31;5.40;;;5.00;;
15899;SDS011;8048;50.644;6.184;2024-03-25T07:49:56;6.70;;;6.10;;
15899;SDS011;8048;50.644;6.184;2024-03-25T07:52:24;6.23;;;5.73;;
15899;SDS011;8048;50.644;6.184;2024-03-25T07:54:49;6.57;;;5.97;;
15899;SDS011;8048;50.644;6.184;2024-03-25T07:57:15;7.07;;;6.40;;
15899;SDS011;8048;50.644;6.184;2024-03-25T07:59:42;5.83;;;4.90;;
15899;SDS011;8048;50.644;6.184;2024-03-25T08:02:07;6.17;;;5.57;;
15899;SDS011;8048;50.644;6.184;2024-03-25T08:04:33;4.83;;;4.50;;
15899;SDS011;8048;50.644;6.184;2024-03-25T08:06:58;7.30;;;4.37;;
15899;SDS011;8048;50.644;6.184;2024-03-25T08:09:24;6.37;;;5.10;;
15899;SDS011;8048;50.644;6.184;2024-03-25T08:11:49;5.30;;;4.90;;
15899;SDS011;8048;50.644;6.184;2024-03-25T08:14:15;6.77;;;4.77;;
15899;SDS011;8048;50.644;6.184;2024-03-25T08:16:40;7.50;;;5.07;;
15899;SDS011;8048;50.644;6.184;2024-03-25T08:19:06;4.60;;;4.20;;
15899;SDS011;8048;50.644;6.184;2024-03-25T08:21:32;3.80;;;3.60;;
15899;SDS011;8048;50.644;6.184;2024-03-25T08:23:57;4.10;;;3.80;;
15899;SDS011;8048;50.644;6.184;2024-03-25T08:26:23;4.70;;;4.40;;
15899;SDS011;8048;50.644;6.184;2024-03-25T08:28:48;4.13;;;3.90;;
15899;SDS011;8048;50.644;6.184;2024-03-25T08:31:14;4.73;;;4.30;;
15899;SDS011;8048;50.644;6.184;2024-03-25T08:33:40;4.43;;;4.13;;
15899;SDS011;8048;50.644;6.184;2024-03-25T08:36:05;4.90;;;4.50;;
15899;SDS011;8048;50.644;6.184;2024-03-25T08:38:31;5.37;;;4.43;;
15899;SDS011;8048;50.644;6.184;2024-03-25T08:40:57;6.23;;;4.57;;
15899;SDS011;8048;50.644;6.184;2024-03-25T08:43:22;4.80;;;4.50;;
15899;SDS011;8048;50.644;6.184;2024-03-25T08:45:48;4.33;;;4.03;;
15899;SDS011;8048;50.644;6.184;2024-03-25T08:48:13;4.90;;;4.30;;
15899;SDS011;8048;50.644;6.184;2024-03-25T08:50:39;7.00;;;3.80;;
15899;SDS011;8048;50.644;6.184;2024-03-25T08:53:04;3.93;;;3.70;;
15899;SDS011;8048;50.644;6.184;2024-03-25T08:55:30;4.07;;;3.77;;
15899;SDS011;8048;50.644;6.184;2024-03-25T08:57:56;6.67;;;3.57;;
15899;SDS011;8048;50.644;6.184;2024-03-25T09:00:26;7.67;;;4.00;;
15899;SDS011;8048;50.644;6.184;2024-03-25T09:02:54;4.33;;;3.93;;
15899;SDS011;8048;50.644;6.184;2024-03-25T09:05:20;4.00;;;3.80;;
15899;SDS011;8048;50.644;6.184;2024-03-25T09:07:49;4.10;;;3.90;;
15899;SDS011;8048;50.644;6.184;2024-03-25T09:10:17;3.30;;;3.20;;
15899;SDS011;8048;50.644;6.184;2024-03-25T09:13:02;3.43;;;3.13;;
15899;SDS011;8048;50.644;6.184;2024-03-25T09:15:28;3.60;;;3.20;;
15899;SDS011;8048;50.644;6.184;2024-03-25T09:17:54;3.33;;;3.13;;
15899;SDS011;8048;50.644;6.184;2024-03-25T09:20:19;3.43;;;3.17;;
15899;SDS011;8048;50.644;6.184;2024-03-25T09:22:46;5.80;;;3.27;;
15899;SDS011;8048;50.644;6.184;2024-03-25T09:25:13;5.30;;;3.93;;
15899;SDS011;8048;50.644;6.184;2024-03-25T09:27:46;5.50;;;3.27;;
15899;SDS011;8048;50.644;6.184;2024-03-25T09:30:12;3.40;;;3.10;;
15899;SDS011;8048;50.644;6.184;2024-03-25T09:32:39;4.60;;;4.20;;
15899;SDS011;8048;50.644;6.184;2024-03-25T09:35:05;4.50;;;4.13;;
15899;SDS011;8048;50.644;6.184;2024-03-25T09:37:30;4.47;;;4.07;;
15899;SDS011;8048;50.644;6.184;2024-03-25T09:39:57;8.40;;;4.33;;
15899;SDS011;8048;50.644;6.184;2024-03-25T09:42:27;5.30;;;4.53;;
15899;SDS011;8048;50.644;6.184;2024-03-25T09:45:01;4.57;;;4.13;;
15899;SDS011;8048;50.644;6.184;2024-03-25T09:47:28;6.23;;;4.33;;
15899;SDS011;8048;50.644;6.184;2024-03-25T09:49:54;6.50;;;4.30;;
15899;SDS011;8048;50.644;6.184;2024-03-25T09:52:19;5.03;;;3.93;;
15899;SDS011;8048;50.644;6.184;2024-03-25T09:54:45;5.27;;;4.57;;
15899;SDS011;8048;50.644;6.184;2024-03-25T09:57:11;5.77;;;5.30;;
15899;SDS011;8048;50.644;6.184;2024-03-25T09:59:38;11.43;;;5.70;;
15899;SDS011;8048;50.644;6.184;2024-03-25T10:02:04;9.80;;;5.17;;
15899;SDS011;8048;50.644;6.184;2024-03-25T10:04:32;5.80;;;5.20;;
15899;SDS011;8048;50.644;6.184;2024-03-25T10:06:58;5.90;;;5.43;;
15899;SDS011;8048;50.644;6.184;2024-03-25T10:09:24;6.37;;;4.63;;
15899;SDS011;8048;50.644;6.184;2024-03-25T10:11:50;4.70;;;4.40;;
15899;SDS011;8048;50.644;6.184;2024-03-25T10:14:16;8.00;;;4.60;;
15899;SDS011;8048;50.644;6.184;2024-03-25T10:16:42;4.30;;;3.90;;
15899;SDS011;8048;50.644;6.184;2024-03-25T10:19:08;4.50;;;4.20;;
15899;SDS011;8048;50.644;6.184;2024-03-25T10:21:34;7.10;;;4.30;;
15899;SDS011;8048;50.644;6.184;2024-03-25T10:24:00;3.17;;;2.97;;
15899;SDS011;8048;50.644;6.184;2024-03-25T10:26:27;4.63;;;4.23;;
15899;SDS011;8048;50.644;6.184;2024-03-25T10:29:04;6.50;;;3.77;;
15899;SDS011;8048;50.644;6.184;2024-03-25T10:31:35;5.63;;;3.37;;
15899;SDS011;8048;50.644;6.184;2024-03-25T10:34:01;4.03;;;3.63;;
15899;SDS011;8048;50.644;6.184;2024-03-25T10:36:26;3.70;;;3.50;;
15899;SDS011;8048;50.644;6.184;2024-03-25T10:38:54;5.23;;;4.70;;
15899;SDS011;8048;50.644;6.184;2024-03-25T10:41:21;4.00;;;3.70;;
15899;SDS011;8048;50.644;6.184;2024-03-25T10:43:48;3.70;;;3.50;;
15899;SDS011;8048;50.644;6.184;2024-03-25T10:46:16;3.33;;;3.10;;
15899;SDS011;8048;50.644;6.184;2024-03-25T10:48:45;4.33;;;3.93;;
15899;SDS011;8048;50.644;6.184;2024-03-25T10:51:21;3.90;;;3.50;;
15899;SDS011;8048;50.644;6.184;2024-03-25T10:53:50;3.60;;;3.37;;
15899;SDS011;8048;50.644;6.184;2024-03-25T10:56:19;3.40;;;3.20;;
15899;SDS011;8048;50.644;6.184;2024-03-25T10:58:49;4.63;;;4.23;;
15899;SDS011;8048;50.644;6.184;2024-03-25T11:01:18;3.83;;;3.60;;
15899;SDS011;8048;50.644;6.184;2024-03-25T11:03:45;3.60;;;3.30;;
15899;SDS011;8048;50.644;6.184;2024-03-25T11:06:12;3.90;;;3.37;;
15899;SDS011;8048;50.644;6.184;2024-03-25T11:08:39;4.47;;;4.00;;
15899;SDS011;8048;50.644;6.184;2024-03-25T11:11:06;4.10;;;3.80;;
15899;SDS011;8048;50.644;6.184;2024-03-25T11:13:32;3.40;;;3.20;;
15899;SDS011;8048;50.644;6.184;2024-03-25T11:15:59;3.87;;;3.60;;
15899;SDS011;8048;50.644;6.184;2024-03-25T11:18:26;4.50;;;4.23;;
15899;SDS011;8048;50.644;6.184;2024-03-25T11:21:02;4.30;;;3.73;;
15899;SDS011;8048;50.644;6.184;2024-03-25T11:23:42;12.03;;;4.30;;
15899;SDS011;8048;50.644;6.184;2024-03-25T11:26:26;3.80;;;3.60;;
15899;SDS011;8048;50.644;6.184;2024-03-25T11:28:54;4.40;;;4.00;;
15899;SDS011;8048;50.644;6.184;2024-03-25T11:31:20;4.03;;;3.77;;
15899;SDS011;8048;50.644;6.184;2024-03-25T11:33:49;4.40;;;4.00;;
15899;SDS011;8048;50.644;6.184;2024-03-25T11:36:15;4.20;;;3.90;;
15899;SDS011;8048;50.644;6.184;2024-03-25T11:38:43;3.67;;;3.37;;
15899;SDS011;8048;50.644;6.184;2024-03-25T11:41:09;3.87;;;3.57;;
15899;SDS011;8048;50.644;6.184;2024-03-25T11:43:36;4.23;;;3.83;;
15899;SDS011;8048;50.644;6.184;2024-03-25T11:46:01;3.90;;;3.60;;
15899;SDS011;8048;50.644;6.184;2024-03-25T11:48:28;5.10;;;4.90;;
15899;SDS011;8048;50.644;6.184;2024-03-25T11:50:55;3.67;;;3.47;;
15899;SDS011;8048;50.644;6.184;2024-03-25T11:53:20;4.97;;;3.40;;
15899;SDS011;8048;50.644;6.184;2024-03-25T11:55:46;3.47;;;3.20;;
15899;SDS011;8048;50.644;6.184;2024-03-25T11:58:13;3.80;;;3.60;;
15899;SDS011;8048;50.644;6.184;2024-03-25T12:00:45;4.30;;;3.90;;
15899;SDS011;8048;50.644;6.184;2024-03-25T12:03:14;4.90;;;4.43;;
15899;SDS011;8048;50.644;6.184;2024-03-25T12:05:43;3.73;;;3.33;;
15899;SDS011;8048;50.644;6.184;2024-03-25T12:08:09;3.90;;;3.20;;
15899;SDS011;8048;50.644;6.184;2024-03-25T12:10:36;4.03;;;3.73;;
15899;SDS011;8048;50.644;6.184;2024-03-25T12:13:21;4.03;;;3.00;;
15899;SDS011;8048;50.644;6.184;2024-03-25T12:15:47;4.07;;;3.77;;
15899;SDS011;8048;50.644;6.184;2024-03-25T12:18:13;5.77;;;3.40;;
15899;SDS011;8048;50.644;6.184;2024-03-25T12:20:40;4.77;;;4.30;;
15899;SDS011;8048;50.644;6.184;2024-03-25T12:23:06;3.33;;;3.13;;
15899;SDS011;8048;50.644;6.184;2024-03-25T12:25:32;3.50;;;3.20;;
15899;SDS011;8048;50.644;6.184;2024-03-25T12:27:58;3.80;;;3.40;;
15899;SDS011;8048;50.644;6.184;2024-03-25T12:30:24;3.80;;;3.47;;
15899;SDS011;8048;50.644;6.184;2024-03-25T12:32:50;4.87;;;3.90;;
15899;SDS011;8048;50.644;6.184;2024-03-25T12:35:16;5.23;;;3.93;;
15899;SDS011;8048;50.644;6.184;2024-03-25T12:37:43;4.33;;;3.93;;
15899;SDS011;8048;50.644;6.184;2024-03-25T12:40:10;4.57;;;4.07;;
15899;SDS011;8048;50.644;6.184;2024-03-25T12:42:37;3.80;;;3.57;;
15899;SDS011;8048;50.644;6.184;2024-03-25T12:45:07;3.83;;;3.53;;
15899;SDS011;8048;50.644;6.184;2024-03-25T12:47:33;5.23;;;4.60;;
15899;SDS011;8048;50.644;6.184;2024-03-25T12:49:59;4.90;;;3.83;;
15899;SDS011;8048;50.644;6.184;2024-03-25T12:52:24;4.63;;;3.90;;
15899;SDS011;8048;50.644;6.184;2024-03-25T12:54:50;4.47;;;3.80;;
15899;SDS011;8048;50.644;6.184;2024-03-25T12:57:16;4.40;;;4.00;;
15899;SDS011;8048;50.644;6.184;2024-03-25T12:59:42;3.80;;;3.50;;
15899;SDS011;8048;50.644;6.184;2024-03-25T13:02:09;4.03;;;3.70;;
15899;SDS011;8048;50.644;6.184;2024-03-25T13:04:36;4.20;;;3.90;;
15899;SDS011;8048;50.644;6.184;2024-03-25T13:07:07;6.23;;;5.20;;
15899;SDS011;8048;50.644;6.184;2024-03-25T13:09:33;4.27;;;3.90;;
15899;SDS011;8048;50.644;6.184;2024-03-25T13:11:58;3.80;;;3.60;;
15899;SDS011;8048;50.644;6.184;2024-03-25T13:14:25;4.47;;;4.17;;
15899;SDS011;8048;50.644;6.184;2024-03-25T13:16:50;4.40;;;4.20;;
15899;SDS011;8048;50.644;6.184;2024-03-25T13:19:16;4.67;;;4.20;;
15899;SDS011;8048;50.644;6.184;2024-03-25T13:21:42;3.90;;;3.70;;
15899;SDS011;8048;50.644;6.184;2024-03-25T13:24:08;3.73;;;3.53;;
15899;SDS011;8048;50.644;6.184;2024-03-25T13:26:34;4.80;;;4.40;;
15899;SDS011;8048;50.644;6.184;2024-03-25T13:29:00;3.60;;;3.40;;
15899;SDS011;8048;50.644;6.184;2024-03-25T13:31:25;4.70;;;3.30;;
15899;SDS011;8048;50.644;6.184;2024-03-25T13:33:51;3.73;;;3.37;;
15899;SDS011;8048;50.644;6.184;2024-03-25T13:36:17;3.20;;;2.90;;
15899;SDS011;8048;50.644;6.184;2024-03-25T13:38:43;3.73;;;3.53;;
15899;SDS011;8048;50.644;6.184;2024-03-25T13:41:09;3.73;;;3.50;;
15899;SDS011;8048;50.644;6.184;2024-03-25T13:43:35;3.80;;;3.50;;
15899;SDS011;8048;50.644;6.184;2024-03-25T13:46:01;3.57;;;3.47;;
15899;SDS011;8048;50.644;6.184;2024-03-25T13:48:26;7.43;;;3.97;;
15899;SDS011;8048;50.644;6.184;2024-03-25T13:50:55;4.00;;;3.80;;
15899;SDS011;8048;50.644;6.184;2024-03-25T13:53:21;4.77;;;4.37;;
15899;SDS011;8048;50.644;6.184;2024-03-25T13:55:46;3.60;;;3.40;;
15899;SDS011;8048;50.644;6.184;2024-03-25T13:58:12;4.23;;;4.03;;
15899;SDS011;8048;50.644;6.184;2024-03-25T14:00:38;3.20;;;3.10;;
15899;SDS011;8048;50.644;6.184;2024-03-25T14:03:04;4.10;;;3.83;;
15899;SDS011;8048;50.644;6.184;2024-03-25T14:05:29;4.37;;;4.17;;
15899;SDS011;8048;50.644;6.184;2024-03-25T14:07:55;3.97;;;3.70;;
15899;SDS011;8048;50.644;6.184;2024-03-25T14:10:21;4.13;;;3.83;;
15899;SDS011;8048;50.644;6.184;2024-03-25T14:12:47;4.00;;;3.70;;
15899;SDS011;8048;50.644;6.184;2024-03-25T14:15:13;4.00;;;3.80;;
15899;SDS011;8048;50.644;6.184;2024-03-25T14:17:38;3.70;;;3.50;;
15899;SDS011;8048;50.644;6.184;2024-03-25T14:20:04;4.90;;;3.77;;
15899;SDS011;8048;50.644;6.184;2024-03-25T14:22:31;4.20;;;4.00;;
15899;SDS011;8048;50.644;6.184;2024-03-25T14:24:57;3.77;;;3.47;;
15899;SDS011;8048;50.644;6.184;2024-03-25T14:27:23;3.70;;;3.50;;
15899;SDS011;8048;50.644;6.184;2024-03-25T14:29:50;3.40;;;3.20;;
15899;SDS011;8048;50.644;6.184;2024-03-25T14:32:17;4.30;;;4.00;;
15899;SDS011;8048;50.644;6.184;2024-03-25T14:34:44;4.43;;;4.13;;
15899;SDS011;8048;50.644;6.184;2024-03-25T14:37:10;4.93;;;4.47;;
15899;SDS011;8048;50.644;6.184;2024-03-25T14:39:36;4.60;;;3.30;;
15899;SDS011;8048;50.644;6.184;2024-03-25T14:42:01;3.70;;;3.40;;
15899;SDS011;8048;50.644;6.184;2024-03-25T14:44:28;3.07;;;2.97;;
15899;SDS011;8048;50.644;6.184;2024-03-25T14:46:54;3.60;;;3.40;;
15899;SDS011;8048;50.644;6.184;2024-03-25T14:49:20;6.80;;;3.70;;
15899;SDS011;8048;50.644;6.184;2024-03-25T14:51:45;2.97;;;2.87;;
15899;SDS011;8048;50.644;6.184;2024-03-25T14:54:11;3.37;;;3.07;;
15899;SDS011;8048;50.644;6.184;2024-03-25T14:56:36;3.57;;;3.27;;